Terminal Aerodrome Forecast
Issued by NWS

Home | Current Version | Previous Version | Text Only | Print | Product List | Glossary On
Versions: 1 2 3 4 5 6 7 8 9 10 11 12 13 14 15 16 17 18
000
FTUS46 KSEW 301750
TAFPAE
TAF
KPAE 301750Z 3018/3118 17010KT P6SM BKN008 OVC015
     FM301900 17012KT P6SM BKN025 BKN070
     FM302000 18014KT P6SM SCT045 BKN080
     FM310600 16008KT P6SM OVC040
     FM311100 15014KT P6SM -RA OVC040=

USA.gov is the U.S. government's official web portal to all federal, state and local government web resources and services.